createdAt,value
2022-08-19T00:01:57.872Z,51.13
2022-08-19T00:04:31.539Z,50.68
2022-08-19T00:06:59.715Z,50.86
2022-08-19T00:09:27.583Z,51.23
2022-08-19T00:11:56.654Z,51.41
2022-08-19T00:14:25.530Z,51.29
2022-08-19T00:16:55.565Z,51.60
2022-08-19T00:19:24.583Z,51.67
2022-08-19T00:21:52.758Z,52.08
2022-08-19T00:24:20.357Z,52.20
2022-08-19T00:26:48.948Z,52.85
2022-08-19T00:29:20.023Z,53.13
2022-08-19T00:31:47.937Z,53.59
2022-08-19T00:34:17.758Z,53.91
2022-08-19T00:36:45.509Z,54.09
2022-08-19T00:39:13.733Z,54.38
2022-08-19T00:41:41.430Z,54.57
2022-08-19T00:44:16.327Z,54.94
2022-08-19T00:46:55.466Z,55.07
2022-08-19T00:49:26.068Z,55.52
2022-08-19T00:51:58.604Z,55.74
2022-08-19T00:54:28.666Z,56.23
2022-08-19T00:57:00.828Z,55.97
2022-08-19T01:00:00.416Z,56.24
2022-08-19T01:02:18.036Z,56.32
2022-08-19T01:04:45.604Z,56.24
2022-08-19T01:07:15.200Z,56.44
2022-08-19T01:09:44.856Z,56.52
2022-08-19T01:12:12.546Z,56.55
2022-08-19T01:14:41.434Z,56.92
2022-08-19T01:17:10.968Z,57.19
2022-08-19T01:19:44.131Z,56.91
2022-08-19T01:22:16.844Z,56.55
2022-08-19T01:24:49.601Z,56.79
2022-08-19T01:27:18.067Z,56.86
2022-08-19T01:29:46.113Z,56.58
2022-08-19T01:32:33.306Z,56.74
2022-08-19T01:35:02.989Z,56.59
2022-08-19T01:37:31.860Z,57.05
2022-08-19T01:39:59.593Z,56.86
2022-08-19T01:42:28.152Z,56.71
2022-08-19T01:44:58.148Z,56.97
2022-08-19T01:47:25.458Z,56.86
2022-08-19T01:49:53.186Z,57.05
2022-08-19T01:52:20.338Z,57.23
2022-08-19T01:54:47.452Z,57.14
2022-08-19T01:57:15.660Z,57.22
2022-08-19T01:59:44.021Z,57.12
2022-08-19T02:02:11.639Z,57.40
2022-08-19T02:04:39.644Z,57.50
2022-08-19T02:07:09.254Z,57.40
2022-08-19T02:09:36.616Z,57.38
2022-08-19T02:12:05.555Z,57.58
2022-08-19T02:14:35.356Z,57.72
2022-08-19T02:17:02.915Z,57.67
2022-08-19T02:19:30.109Z,58.21
2022-08-19T02:21:57.193Z,58.31
2022-08-19T02:24:24.550Z,58.63
2022-08-19T02:26:52.380Z,58.20
2022-08-19T02:29:19.642Z,58.36
2022-08-19T02:31:46.828Z,58.60
2022-08-19T02:34:13.934Z,58.55
2022-08-19T02:36:42.522Z,58.58
2022-08-19T02:39:10.922Z,58.55
2022-08-19T02:41:38.278Z,58.45
2022-08-19T02:44:29.068Z,58.54
2022-08-19T02:46:52.759Z,58.38
2022-08-19T02:49:20.891Z,58.25
2022-08-19T02:51:48.498Z,58.26
2022-08-19T02:54:15.891Z,58.50
2022-08-19T02:56:45.385Z,58.12
2022-08-19T02:59:13.081Z,58.50
2022-08-19T03:01:42.414Z,58.50
2022-08-19T03:04:14.971Z,58.33
2022-08-19T03:06:44.613Z,58.11
2022-08-19T03:09:13.222Z,57.74
2022-08-19T03:11:41.345Z,57.61
2022-08-19T03:14:09.617Z,57.30
2022-08-19T03:16:45.261Z,56.62
2022-08-19T03:19:12.973Z,56.24
2022-08-19T03:21:40.017Z,56.27
2022-08-19T03:24:09.213Z,56.41
2022-08-19T03:26:41.276Z,56.47
2022-08-19T03:29:10.174Z,56.52
2022-08-19T03:31:43.488Z,56.67
2022-08-19T03:34:15.216Z,56.27
2022-08-19T03:36:42.538Z,56.38
2022-08-19T03:39:11.688Z,56.38
2022-08-19T03:41:45.271Z,56.18
2022-08-19T03:44:18.189Z,56.63
2022-08-19T03:46:47.971Z,56.45
2022-08-19T03:49:18.055Z,56.02
2022-08-19T03:51:54.595Z,55.87
2022-08-19T03:54:24.079Z,55.71
2022-08-19T03:56:53.542Z,55.19
2022-08-19T03:59:28.118Z,55.59
2022-08-19T04:01:58.216Z,55.33
2022-08-19T04:04:29.208Z,54.90
2022-08-19T04:06:57.352Z,55.27
2022-08-19T04:09:25.490Z,54.91
2022-08-19T04:11:55.227Z,54.61
2022-08-19T04:14:25.671Z,54.13
2022-08-19T04:16:53.628Z,52.62
2022-08-19T04:19:21.756Z,51.09
2022-08-19T04:21:51.373Z,49.98
2022-08-19T04:24:19.739Z,49.85
2022-08-19T04:26:47.753Z,49.52
2022-08-19T04:29:22.908Z,49.72
2022-08-19T04:31:50.989Z,49.90
2022-08-19T04:34:23.351Z,50.12
2022-08-19T04:36:52.284Z,49.84
2022-08-19T04:39:44.681Z,48.53
2022-08-19T04:42:31.160Z,46.94
2022-08-19T04:44:59.682Z,44.88
2022-08-19T04:47:48.016Z,43.53
2022-08-19T04:50:16.239Z,43.91
2022-08-19T04:52:46.198Z,43.90
2022-08-19T04:55:13.787Z,42.69
2022-08-19T04:57:41.584Z,42.36
2022-08-19T05:00:10.267Z,41.79
2022-08-19T05:02:38.232Z,42.50
2022-08-19T05:05:07.674Z,43.60
2022-08-19T05:07:35.640Z,44.43
2022-08-19T05:10:05.787Z,43.37
2022-08-19T05:12:33.381Z,43.00
2022-08-19T05:15:01.913Z,43.34
2022-08-19T05:17:34.848Z,44.46
2022-08-19T05:20:25.242Z,44.77
2022-08-19T05:22:53.600Z,46.38
2022-08-19T05:25:23.105Z,47.17
2022-08-19T05:27:50.611Z,47.68
2022-08-19T05:30:18.731Z,47.95
2022-08-19T05:32:57.513Z,49.31
2022-08-19T05:35:25.209Z,50.42
2022-08-19T05:37:54.988Z,50.33
2022-08-19T05:40:26.842Z,50.82
2022-08-19T05:42:55.209Z,51.06
2022-08-19T05:45:23.008Z,51.31
2022-08-19T05:47:50.209Z,49.61
2022-08-19T05:50:18.667Z,49.23
2022-08-19T05:52:50.194Z,48.83
2022-08-19T05:55:21.310Z,47.61
2022-08-19T05:57:48.535Z,47.15
2022-08-19T06:00:15.861Z,46.35
2022-08-19T06:02:46.196Z,45.85
2022-08-19T06:05:13.683Z,44.78
2022-08-19T06:07:41.415Z,45.20
2022-08-19T06:10:11.505Z,45.26
2022-08-19T06:12:39.520Z,45.45
2022-08-19T06:15:12.495Z,45.64
2022-08-19T06:17:39.923Z,46.50
2022-08-19T06:20:11.092Z,47.12
2022-08-19T06:22:40.092Z,47.92
2022-08-19T06:25:13.080Z,49.09
2022-08-19T06:28:13.658Z,49.87
2022-08-19T06:30:28.312Z,49.89
2022-08-19T06:32:55.404Z,50.66
2022-08-19T06:35:23.248Z,50.46
2022-08-19T06:37:50.395Z,50.64
2022-08-19T06:40:17.575Z,51.05
2022-08-19T06:42:54.079Z,51.41
2022-08-19T06:45:24.861Z,51.48
2022-08-19T06:48:04.463Z,51.51
2022-08-19T06:50:31.611Z,51.84
2022-08-19T06:52:59.779Z,50.93
2022-08-19T06:55:33.243Z,50.94
2022-08-19T06:58:05.860Z,51.28
2022-08-19T07:00:33.416Z,51.33
2022-08-19T07:03:04.487Z,50.81
2022-08-19T07:05:33.467Z,50.68
2022-08-19T07:08:04.953Z,50.24
2022-08-19T07:10:33.921Z,49.70
2022-08-19T07:13:01.414Z,48.63
2022-08-19T07:15:28.553Z,47.72
2022-08-19T07:17:56.796Z,47.41
2022-08-19T07:20:28.430Z,46.40
2022-08-19T07:22:56.181Z,45.79
2022-08-19T07:25:32.373Z,45.62
2022-08-19T07:28:01.647Z,45.79
2022-08-19T07:30:29.117Z,45.65
2022-08-19T07:32:57.660Z,44.22
2022-08-19T07:35:24.981Z,44.97
2022-08-19T07:37:54.181Z,44.64
2022-08-19T07:40:21.624Z,44.79
2022-08-19T07:42:48.768Z,44.81
2022-08-19T07:45:17.112Z,43.75
2022-08-19T07:47:48.196Z,43.28
2022-08-19T07:50:20.573Z,43.61
2022-08-19T07:52:50.737Z,42.73
2022-08-19T07:55:41.763Z,42.12
2022-08-19T07:58:10.019Z,42.60
2022-08-19T08:00:37.438Z,42.62
2022-08-19T08:03:04.837Z,42.41
2022-08-19T08:05:50.462Z,42.45
2022-08-19T08:08:44.195Z,42.36
2022-08-19T08:11:15.498Z,42.25
2022-08-19T08:13:43.608Z,42.47
2022-08-19T08:16:14.122Z,41.81
2022-08-19T08:18:50.250Z,41.43
2022-08-19T08:21:18.133Z,42.03
2022-08-19T08:23:45.274Z,42.39
2022-08-19T08:26:14.180Z,42.31
2022-08-19T08:28:43.234Z,42.79
2022-08-19T08:31:15.808Z,42.58
2022-08-19T08:33:43.448Z,42.52
2022-08-19T08:36:12.103Z,42.07
2022-08-19T08:38:41.345Z,41.17
2022-08-19T08:41:29.760Z,41.71
2022-08-19T08:43:58.509Z,42.25
2022-08-19T08:46:43.622Z,42.50
2022-08-19T08:49:37.448Z,42.37
2022-08-19T08:52:11.149Z,42.85
2022-08-19T08:54:55.461Z,43.52
2022-08-19T08:57:56.102Z,43.21
2022-08-19T09:00:44.202Z,43.00
2022-08-19T09:03:26.422Z,41.86
2022-08-19T09:06:12.608Z,41.47
2022-08-19T09:08:58.781Z,41.12
2022-08-19T09:11:42.431Z,41.19
2022-08-19T09:14:49.784Z,41.41
2022-08-19T09:17:18.489Z,41.40
2022-08-19T09:19:57.188Z,41.85
2022-08-19T09:22:25.742Z,41.93
2022-08-19T09:24:55.344Z,41.73
2022-08-19T09:27:42.868Z,41.09
2022-08-19T09:30:17.198Z,39.35
2022-08-19T09:32:45.728Z,39.52
2022-08-19T09:35:14.538Z,39.45
2022-08-19T09:37:44.018Z,39.02
2022-08-19T09:40:15.435Z,39.77
2022-08-19T09:42:49.639Z,40.03
2022-08-19T09:45:21.850Z,40.95
2022-08-19T09:47:53.830Z,41.27
2022-08-19T09:50:23.936Z,40.74
2022-08-19T09:52:55.715Z,40.13
2022-08-19T09:55:31.774Z,39.14
2022-08-19T09:58:03.535Z,39.58
2022-08-19T10:00:32.097Z,38.78
2022-08-19T10:02:59.515Z,39.17
2022-08-19T10:05:45.102Z,36.88
2022-08-19T10:08:28.187Z,38.02
2022-08-19T10:10:56.539Z,37.32
2022-08-19T10:13:28.669Z,36.78
2022-08-19T10:15:58.466Z,36.00
2022-08-19T10:18:26.567Z,35.25
2022-08-19T10:20:54.664Z,33.76
2022-08-19T10:23:22.792Z,34.20
2022-08-19T10:25:50.868Z,33.41
2022-08-19T10:28:19.166Z,33.46
2022-08-19T10:30:48.206Z,33.46
2022-08-19T10:33:38.627Z,33.02
2022-08-19T10:36:18.947Z,34.17
2022-08-19T10:38:52.314Z,33.33
2022-08-19T10:41:25.675Z,33.34
2022-08-19T10:43:56.208Z,32.95
2022-08-19T10:46:25.663Z,32.45
2022-08-19T10:48:53.986Z,31.72
2022-08-19T10:51:47.809Z,31.27
2022-08-19T10:54:16.711Z,30.93
2022-08-19T10:56:53.084Z,31.22
2022-08-19T10:59:35.790Z,30.83
2022-08-19T11:02:06.321Z,31.37
2022-08-19T11:04:34.352Z,31.33
2022-08-19T11:07:04.522Z,30.92
2022-08-19T11:09:34.204Z,31.15
2022-08-19T11:12:02.717Z,29.42
2022-08-19T11:14:34.188Z,30.44
2022-08-19T11:17:02.634Z,30.12
2022-08-19T11:19:29.804Z,30.54
2022-08-19T11:21:57.586Z,30.46
2022-08-19T11:24:28.550Z,31.16
2022-08-19T11:27:02.253Z,31.25
2022-08-19T11:29:30.306Z,31.52
2022-08-19T11:31:57.333Z,31.83
2022-08-19T11:34:29.455Z,32.79
2022-08-19T11:37:01.167Z,32.67
2022-08-19T11:39:31.445Z,32.70
2022-08-19T11:41:59.648Z,32.54
2022-08-19T11:44:27.006Z,32.34
2022-08-19T11:46:54.257Z,33.25
2022-08-19T11:49:22.373Z,33.01
2022-08-19T11:51:51.825Z,33.66
2022-08-19T11:54:22.041Z,33.38
2022-08-19T11:56:50.130Z,33.48
2022-08-19T11:59:17.334Z,33.47
2022-08-19T12:01:45.026Z,33.85
2022-08-19T12:04:12.526Z,34.81
2022-08-19T12:06:42.231Z,34.56
2022-08-19T12:09:10.929Z,35.28
2022-08-19T12:11:39.716Z,35.18
2022-08-19T12:14:09.891Z,35.62
2022-08-19T12:16:51.074Z,35.32
2022-08-19T12:19:21.764Z,35.74
2022-08-19T12:21:50.057Z,35.75
2022-08-19T12:24:21.591Z,35.42
2022-08-19T12:26:53.337Z,35.72
2022-08-19T12:29:23.987Z,36.18
2022-08-19T12:31:52.624Z,36.26
2022-08-19T12:34:21.285Z,36.79
2022-08-19T12:36:50.519Z,37.13
2022-08-19T12:39:18.542Z,37.54
2022-08-19T12:41:51.615Z,37.57
2022-08-19T12:44:29.399Z,37.55
2022-08-19T12:47:00.802Z,38.11
2022-08-19T12:49:53.187Z,38.27
2022-08-19T12:52:23.173Z,38.16
2022-08-19T12:54:54.525Z,38.01
2022-08-19T12:57:31.810Z,38.01
2022-08-19T13:00:11.918Z,38.25
2022-08-19T13:02:41.788Z,37.61
2022-08-19T13:05:12.229Z,37.93
2022-08-19T13:07:41.311Z,37.41
2022-08-19T13:10:10.473Z,37.36
2022-08-19T13:12:38.058Z,37.41
2022-08-19T13:15:11.493Z,37.17
2022-08-19T13:17:40.528Z,37.60
2022-08-19T13:20:12.303Z,37.58
2022-08-19T13:22:39.693Z,37.54
2022-08-19T13:25:08.585Z,37.63
2022-08-19T13:27:36.776Z,37.70
2022-08-19T13:30:23.967Z,37.63
2022-08-19T13:33:09.610Z,37.79
2022-08-19T13:35:36.858Z,38.11
2022-08-19T13:38:05.942Z,38.00
2022-08-19T13:40:41.183Z,38.38
2022-08-19T13:43:17.449Z,38.29
2022-08-19T13:45:56.494Z,38.63
2022-08-19T13:48:24.748Z,38.19
2022-08-19T13:50:52.054Z,38.40
2022-08-19T13:53:19.556Z,38.52
2022-08-19T13:55:47.872Z,38.43
2022-08-19T13:58:15.594Z,38.24
2022-08-19T14:00:45.995Z,38.84
2022-08-19T14:03:14.473Z,38.80
2022-08-19T14:05:41.671Z,38.54
2022-08-19T14:08:08.934Z,38.64
2022-08-19T14:10:36.169Z,38.58
2022-08-19T14:13:04.680Z,39.05
2022-08-19T14:15:32.044Z,39.04
2022-08-19T14:17:59.319Z,39.31
2022-08-19T14:20:26.849Z,40.00
2022-08-19T14:22:54.909Z,40.14
2022-08-19T14:25:26.725Z,40.17
2022-08-19T14:27:54.120Z,40.07
2022-08-19T14:30:26.589Z,39.83
2022-08-19T14:32:55.230Z,40.59
2022-08-19T14:35:23.568Z,40.64
2022-08-19T14:37:51.987Z,41.16
2022-08-19T14:40:26.821Z,40.77
2022-08-19T14:43:00.432Z,40.98
2022-08-19T14:45:29.819Z,40.92
2022-08-19T14:47:57.333Z,41.15
2022-08-19T14:50:24.548Z,41.14
2022-08-19T14:53:06.390Z,41.10
2022-08-19T14:55:44.523Z,40.65
2022-08-19T14:58:29.137Z,40.91
2022-08-19T15:01:00.290Z,40.99
2022-08-19T15:03:28.370Z,41.05
2022-08-19T15:05:58.703Z,41.13
2022-08-19T15:08:27.652Z,41.17
2022-08-19T15:10:55.235Z,41.31
2022-08-19T15:13:22.804Z,41.36
2022-08-19T15:15:49.954Z,41.39
2022-08-19T15:18:17.060Z,41.38
2022-08-19T15:20:46.755Z,41.63
2022-08-19T15:23:19.115Z,41.67
2022-08-19T15:25:46.610Z,41.69
2022-08-19T15:28:14.139Z,42.00
2022-08-19T15:30:42.454Z,42.16
2022-08-19T15:33:15.323Z,41.78
2022-08-19T15:35:43.883Z,42.08
2022-08-19T15:38:14.073Z,42.16
2022-08-19T15:40:43.605Z,42.28
2022-08-19T15:43:11.659Z,42.33
2022-08-19T15:45:40.427Z,42.38
2022-08-19T15:48:07.955Z,42.58
2022-08-19T15:50:35.982Z,42.81
2022-08-19T15:53:10.339Z,42.79
2022-08-19T15:55:44.842Z,42.93
2022-08-19T15:58:33.066Z,43.08
2022-08-19T16:01:22.430Z,43.21
2022-08-19T16:04:14.732Z,43.10
2022-08-19T16:06:56.569Z,43.65
2022-08-19T16:09:29.100Z,43.83
2022-08-19T16:12:02.578Z,43.91
2022-08-19T16:14:32.935Z,44.46
2022-08-19T16:17:00.552Z,44.47
2022-08-19T16:19:28.150Z,44.28
2022-08-19T16:21:56.651Z,44.44
2022-08-19T16:24:27.080Z,44.42
2022-08-19T16:26:54.969Z,44.83
2022-08-19T16:29:34.737Z,45.01
2022-08-19T16:32:10.497Z,44.76
2022-08-19T16:34:40.202Z,44.94
2022-08-19T16:37:08.072Z,44.88
2022-08-19T16:39:35.300Z,45.22
2022-08-19T16:42:02.945Z,45.27
2022-08-19T16:44:35.092Z,45.51
2022-08-19T16:47:02.493Z,45.41
2022-08-19T16:49:52.965Z,45.49
2022-08-19T16:52:19.287Z,45.64
2022-08-19T16:54:47.050Z,45.92
2022-08-19T16:57:14.173Z,45.90
2022-08-19T16:59:43.813Z,45.77
2022-08-19T17:02:22.617Z,45.88
2022-08-19T17:04:57.202Z,45.70
2022-08-19T17:07:33.137Z,45.29
2022-08-19T17:10:02.785Z,44.96
2022-08-19T17:12:32.095Z,44.31
2022-08-19T17:15:02.728Z,44.93
2022-08-19T17:17:31.806Z,44.36
2022-08-19T17:20:01.303Z,44.21
2022-08-19T17:22:28.685Z,44.08
2022-08-19T17:24:58.255Z,44.10
2022-08-19T17:27:31.631Z,43.88
2022-08-19T17:30:01.326Z,44.00
2022-08-19T17:32:35.117Z,44.30
2022-08-19T17:35:04.848Z,43.69
2022-08-19T17:37:32.591Z,43.75
2022-08-19T17:39:59.832Z,44.04
2022-08-19T17:42:27.020Z,44.15
2022-08-19T17:44:54.447Z,44.40
2022-08-19T17:47:21.594Z,44.58
2022-08-19T17:49:48.755Z,44.69
2022-08-19T17:52:16.386Z,44.72
2022-08-19T17:54:43.565Z,44.88
2022-08-19T17:57:11.201Z,45.32
2022-08-19T17:59:38.581Z,45.05
2022-08-19T18:02:10.806Z,45.30
2022-08-19T18:04:39.487Z,45.26
2022-08-19T18:07:06.647Z,45.34
2022-08-19T18:09:41.729Z,45.68
2022-08-19T18:12:11.773Z,45.71
2022-08-19T18:14:40.186Z,45.64
2022-08-19T18:17:12.982Z,45.76
2022-08-19T18:19:43.363Z,46.05
2022-08-19T18:22:13.287Z,45.77
2022-08-19T18:24:42.215Z,45.90
2022-08-19T18:27:10.264Z,45.58
2022-08-19T18:30:00.287Z,45.77
2022-08-19T18:32:38.552Z,45.55
2022-08-19T18:35:12.526Z,45.35
2022-08-19T18:37:42.748Z,44.79
2022-08-19T18:40:43.366Z,45.10
2022-08-19T18:49:28.747Z,44.45
2022-08-19T18:56:07.980Z,44.14
2022-08-19T19:02:19.872Z,43.81
2022-08-19T19:04:47.364Z,43.67
2022-08-19T19:07:14.579Z,43.40
2022-08-19T19:09:41.898Z,43.17
2022-08-19T19:12:10.821Z,43.21
2022-08-19T19:14:49.903Z,42.98
2022-08-19T19:17:18.023Z,42.68
2022-08-19T19:19:45.899Z,42.53
2022-08-19T19:22:18.653Z,42.34
2022-08-19T19:24:46.036Z,42.49
2022-08-19T19:27:15.877Z,42.25
2022-08-19T19:29:42.984Z,42.43
2022-08-19T19:32:18.742Z,41.80
2022-08-19T19:34:45.933Z,41.85
2022-08-19T19:37:13.947Z,42.18
2022-08-19T19:39:45.374Z,41.78
2022-08-19T19:42:20.730Z,41.79
2022-08-19T19:44:53.922Z,41.80
2022-08-19T19:47:21.786Z,41.89
2022-08-19T19:50:13.171Z,41.93
2022-08-19T19:52:40.668Z,41.92
2022-08-19T19:55:09.617Z,41.67
2022-08-19T19:57:40.247Z,41.77
2022-08-19T20:00:09.706Z,41.76
2022-08-19T20:02:36.774Z,41.64
2022-08-19T20:05:04.695Z,41.94
2022-08-19T20:07:50.555Z,41.83
2022-08-19T20:10:17.814Z,41.72
2022-08-19T20:12:44.920Z,41.73
2022-08-19T20:15:12.140Z,41.72
2022-08-19T20:17:42.442Z,41.77
2022-08-19T20:20:11.569Z,41.54
2022-08-19T20:22:43.181Z,41.48
2022-08-19T20:25:14.568Z,41.47
2022-08-19T20:27:42.485Z,41.19
2022-08-19T20:30:19.430Z,40.94
2022-08-19T20:32:49.133Z,41.27
2022-08-19T20:35:19.703Z,41.18
2022-08-19T20:37:46.959Z,41.06
2022-08-19T20:40:15.070Z,41.04
2022-08-19T20:42:44.283Z,40.51
2022-08-19T20:45:19.688Z,40.69
2022-08-19T20:48:03.411Z,40.79
2022-08-19T20:50:35.960Z,40.64
2022-08-19T20:53:14.408Z,40.56
2022-08-19T20:55:44.627Z,40.73
2022-08-19T20:58:13.618Z,40.72
2022-08-19T21:00:41.437Z,40.44
2022-08-19T21:03:08.681Z,40.33
2022-08-19T21:05:36.498Z,40.11
2022-08-19T21:08:04.795Z,39.86
2022-08-19T21:10:32.615Z,39.82
2022-08-19T21:12:59.677Z,39.98
2022-08-19T21:15:26.756Z,40.02
2022-08-19T21:17:53.970Z,39.94
2022-08-19T21:20:21.349Z,40.22
2022-08-19T21:22:48.521Z,40.28
2022-08-19T21:25:17.319Z,40.23
2022-08-19T21:27:44.391Z,40.56
2022-08-19T21:30:12.357Z,40.54
2022-08-19T21:32:39.653Z,40.56
2022-08-19T21:35:07.013Z,40.50
2022-08-19T21:37:35.604Z,40.80
2022-08-19T21:40:02.879Z,40.60
2022-08-19T21:42:31.092Z,41.14
2022-08-19T21:44:58.365Z,41.06
2022-08-19T21:47:25.624Z,41.44
2022-08-19T21:49:52.701Z,41.37
2022-08-19T21:52:24.328Z,41.42
2022-08-19T21:54:52.272Z,41.42
2022-08-19T21:57:19.458Z,41.57
2022-08-19T21:59:46.634Z,42.07
2022-08-19T22:02:22.104Z,41.98
2022-08-19T22:04:52.177Z,42.11
2022-08-19T22:07:20.617Z,42.42
2022-08-19T22:09:49.658Z,41.99
2022-08-19T22:12:32.427Z,42.31
2022-08-19T22:15:00.369Z,42.26
2022-08-19T22:17:28.237Z,42.49
2022-08-19T22:19:56.286Z,42.69
2022-08-19T22:22:26.706Z,43.19
2022-08-19T22:24:54.719Z,43.41
2022-08-19T22:27:21.806Z,43.69
2022-08-19T22:29:52.302Z,43.84
2022-08-19T22:32:28.007Z,44.17
2022-08-19T22:34:59.524Z,44.15
2022-08-19T22:37:31.900Z,44.56
2022-08-19T22:40:00.718Z,44.69
2022-08-19T22:42:31.744Z,44.86
2022-08-19T22:45:03.485Z,44.94
2022-08-19T22:47:34.051Z,45.39
2022-08-19T22:50:13.725Z,45.88
2022-08-19T22:52:51.740Z,46.49
2022-08-19T22:55:19.601Z,46.35
2022-08-19T22:57:46.679Z,46.53
2022-08-19T23:00:17.050Z,46.75
2022-08-19T23:02:52.236Z,46.34
2022-08-19T23:05:22.686Z,46.37
2022-08-19T23:07:52.588Z,46.83
2022-08-19T23:10:26.708Z,47.17
2022-08-19T23:12:57.923Z,47.41
2022-08-19T23:15:29.619Z,47.57
2022-08-19T23:17:59.927Z,47.73
2022-08-19T23:20:32.689Z,47.86
2022-08-19T23:23:03.387Z,47.72
2022-08-19T23:25:33.403Z,48.20
2022-08-19T23:28:19.735Z,48.09
2022-08-19T23:30:49.007Z,48.29
2022-08-19T23:33:24.353Z,48.63
2022-08-19T23:35:53.913Z,48.75
2022-08-19T23:38:23.505Z,49.05
2022-08-19T23:40:55.394Z,49.22
2022-08-19T23:43:24.995Z,49.29
2022-08-19T23:45:57.295Z,49.68
2022-08-19T23:48:28.360Z,49.78
2022-08-19T23:50:56.586Z,49.62
2022-08-19T23:53:23.813Z,50.23
2022-08-19T23:55:51.041Z,50.40
2022-08-19T23:58:18.967Z,50.93
